createdAt,value
2023-08-13T00:02:24.800Z,0
2023-08-13T00:07:24.903Z,0
2023-08-13T00:13:18.099Z,0
2023-08-13T00:18:25.686Z,0
2023-08-13T00:29:18.063Z,0
2023-08-13T00:34:25.247Z,0
2023-08-13T00:39:25.253Z,0
2023-08-13T00:50:18.182Z,0
2023-08-13T00:55:25.597Z,0
2023-08-13T01:01:18.137Z,0
2023-08-13T01:06:24.878Z,0
2023-08-13T01:11:25.298Z,0
2023-08-13T01:17:18.098Z,0
2023-08-13T01:22:18.115Z,0
2023-08-13T01:27:18.129Z,0
2023-08-13T01:32:25.373Z,0
2023-08-13T01:38:18.129Z,0
2023-08-13T01:43:24.822Z,0
2023-08-13T01:48:25.451Z,0
2023-08-13T01:54:18.085Z,0
2023-08-13T01:59:18.133Z,0
2023-08-13T02:04:25.329Z,0
2023-08-13T02:10:18.070Z,0
2023-08-13T02:15:18.136Z,0
2023-08-13T02:20:18.137Z,0
2023-08-13T02:25:24.884Z,0
2023-08-13T02:30:25.382Z,0
2023-08-13T02:35:25.434Z,0
2023-08-13T02:40:25.494Z,0
2023-08-13T02:46:18.125Z,0
2023-08-13T02:51:18.112Z,0
2023-08-13T02:56:18.135Z,0
2023-08-13T03:01:18.198Z,0
2023-08-13T03:06:18.159Z,0
2023-08-13T03:11:24.856Z,0
2023-08-13T03:16:25.007Z,0
2023-08-13T03:21:25.002Z,0
2023-08-13T03:26:25.301Z,0
2023-08-13T03:32:18.111Z,0
2023-08-13T03:37:24.888Z,0
2023-08-13T03:42:25.318Z,0
2023-08-13T03:48:18.087Z,0
2023-08-13T03:53:18.146Z,0
2023-08-13T03:58:25.526Z,0
2023-08-13T04:04:18.153Z,0
2023-08-13T04:09:18.100Z,0
2023-08-13T04:14:18.107Z,0
2023-08-13T04:19:18.139Z,0
2023-08-13T04:24:24.913Z,0
2023-08-13T04:30:18.249Z,0
2023-08-13T04:35:25.308Z,0
2023-08-13T04:41:18.099Z,0
2023-08-13T04:46:18.122Z,0
2023-08-13T04:51:25.710Z,0
2023-08-13T04:57:18.139Z,0
2023-08-13T05:02:18.181Z,0
2023-08-13T05:07:25.305Z,0
2023-08-13T05:13:18.094Z,0
2023-08-13T05:18:24.923Z,0
2023-08-13T05:23:25.205Z,0
2023-08-13T05:28:25.463Z,0
2023-08-13T05:34:18.118Z,0
2023-08-13T05:39:24.901Z,0
2023-08-13T05:45:18.094Z,0
2023-08-13T05:50:18.161Z,0
2023-08-13T05:55:18.188Z,0
2023-08-13T06:00:24.970Z,0
2023-08-13T06:05:25.766Z,0
2023-08-13T06:10:25.822Z,0
2023-08-13T06:16:18.226Z,0
2023-08-13T06:21:24.893Z,0
2023-08-13T06:26:25.009Z,0
2023-08-13T06:31:41.539Z,0
2023-08-13T06:37:18.156Z,0
2023-08-13T06:42:24.980Z,0
2023-08-13T06:48:18.160Z,0
2023-08-13T06:53:18.207Z,0
2023-08-13T06:58:25.398Z,0
2023-08-13T07:03:25.612Z,0
2023-08-13T07:09:18.159Z,0
2023-08-13T07:19:25.188Z,0
2023-08-13T07:24:25.971Z,0
2023-08-13T07:30:18.130Z,0
2023-08-13T07:35:18.219Z,0
2023-08-13T07:40:26.733Z,0
2023-08-13T07:46:18.208Z,0
2023-08-13T07:51:18.186Z,1.1
2023-08-13T07:56:18.198Z,3.1
2023-08-13T08:01:25.010Z,3
2023-08-13T08:07:18.220Z,1.8
2023-08-13T08:12:24.965Z,2.2
2023-08-13T08:17:25.076Z,2.3
2023-08-13T08:22:25.256Z,2.1
2023-08-13T08:28:18.178Z,2.1
2023-08-13T08:33:25.012Z,4.1
2023-08-13T08:39:18.171Z,3.2
2023-08-13T08:45:18.319Z,4.6
2023-08-13T08:50:25.297Z,5.6
2023-08-13T08:56:18.192Z,6.7
2023-08-13T09:01:25.583Z,5.4
2023-08-13T09:07:18.241Z,7.2
2023-08-13T09:12:25.852Z,6.8
2023-08-13T09:18:18.208Z,6.9
2023-08-13T09:23:25.034Z,7.3
2023-08-13T09:28:25.345Z,7.6
2023-08-13T09:34:18.310Z,8.2
2023-08-13T09:39:25.446Z,6.8
2023-08-13T09:45:18.184Z,8.6
2023-08-13T09:50:18.245Z,8
2023-08-13T09:55:25.733Z,6.7
2023-08-13T10:01:18.317Z,7
2023-08-13T10:06:18.281Z,6.6
2023-08-13T10:11:24.986Z,5.7
2023-08-13T10:16:25.994Z,4.8
2023-08-13T10:22:18.275Z,4.2
2023-08-13T10:27:18.284Z,4.7
2023-08-13T10:32:25.002Z,6.2
2023-08-13T10:37:25.772Z,5.1
2023-08-13T10:43:18.277Z,5.8
2023-08-13T10:48:25.035Z,5.8
2023-08-13T10:53:25.062Z,5.9
2023-08-13T10:58:25.602Z,5.8
2023-08-13T11:04:18.295Z,6.2
2023-08-13T11:09:18.291Z,5.3
2023-08-13T11:14:18.341Z,4.8
2023-08-13T11:19:18.314Z,4.8
2023-08-13T11:34:25.433Z,4.6
2023-08-13T11:40:18.254Z,4.2
2023-08-13T11:45:18.255Z,4.2
2023-08-13T11:50:18.265Z,4.1
2023-08-13T11:55:18.332Z,4.2
2023-08-13T12:00:25.404Z,4.6
2023-08-13T12:06:18.299Z,5.1
2023-08-13T12:11:25.046Z,5.1
2023-08-13T12:16:25.166Z,4.7
2023-08-13T12:22:18.446Z,6
2023-08-13T12:27:25.522Z,6.6
2023-08-13T12:33:18.277Z,6.2
2023-08-13T12:38:18.353Z,6.8
2023-08-13T12:43:25.579Z,7
2023-08-13T12:54:18.624Z,7.5
2023-08-13T13:05:18.322Z,6.6
2023-08-13T13:10:25.038Z,6.8
2023-08-13T13:15:25.681Z,7.2
2023-08-13T13:20:28.102Z,7.1
2023-08-13T13:26:18.981Z,6
2023-08-13T13:31:18.385Z,6.9
2023-08-13T13:36:18.362Z,7.8
2023-08-13T13:41:18.379Z,7.3
2023-08-13T13:46:24.057Z,7.2
2023-08-13T13:51:25.462Z,6.4
2023-08-13T13:56:25.864Z,6.4
2023-08-13T14:02:18.698Z,7.1
2023-08-13T14:07:25.694Z,7.8
2023-08-13T14:13:18.389Z,7.6
2023-08-13T14:18:25.569Z,7.2
2023-08-13T14:35:18.412Z,9.7
2023-08-13T14:40:18.372Z,7.3
2023-08-13T14:45:25.606Z,8.8
2023-08-13T14:51:18.399Z,7.8
2023-08-13T14:56:18.382Z,8.4
2023-08-13T15:01:18.464Z,8.7
2023-08-13T15:06:25.518Z,8.2
2023-08-13T15:11:25.532Z,8.3
2023-08-13T15:17:18.388Z,8.1
2023-08-13T15:22:18.371Z,8.7
2023-08-13T15:27:18.410Z,8.4
2023-08-13T15:32:18.762Z,8.3
2023-08-13T15:37:25.315Z,8.5
2023-08-13T15:42:25.581Z,8.3
2023-08-13T15:47:25.664Z,8
2023-08-13T15:53:18.344Z,7.3
2023-08-13T15:58:18.446Z,7.1
2023-08-13T16:03:25.615Z,7.2
2023-08-13T16:09:18.414Z,7.4
2023-08-13T16:14:26.017Z,7.4
2023-08-13T16:20:18.461Z,7.4
2023-08-13T16:25:25.547Z,7.6
2023-08-13T16:31:18.468Z,7.5
2023-08-13T16:36:25.170Z,7.8
2023-08-13T16:41:25.246Z,8
2023-08-13T16:47:18.761Z,7
2023-08-13T16:53:18.386Z,7.3
2023-08-13T16:58:25.618Z,7.5
2023-08-13T17:03:26.149Z,8.4
2023-08-13T17:09:18.347Z,7.1
2023-08-13T17:14:18.389Z,7.5
2023-08-13T17:19:25.768Z,7.2
2023-08-13T17:25:18.378Z,7.7
2023-08-13T17:30:18.443Z,7.2
2023-08-13T17:35:25.236Z,5.7
2023-08-13T17:40:25.928Z,6.7
2023-08-13T17:46:18.512Z,6.5
2023-08-13T17:51:18.409Z,6
2023-08-13T17:56:18.429Z,5.7
2023-08-13T18:01:25.259Z,5.5
2023-08-13T18:06:25.265Z,4.8
2023-08-13T18:12:18.471Z,4.3
2023-08-13T18:17:25.216Z,4
2023-08-13T18:22:26.035Z,3.7
2023-08-13T18:28:18.422Z,3.2
2023-08-13T18:33:18.676Z,3.1
2023-08-13T18:38:18.473Z,2.8
2023-08-13T18:43:25.788Z,2.6
2023-08-13T18:48:25.991Z,2.6
2023-08-13T18:54:18.469Z,2.3
2023-08-13T18:59:24.122Z,2
2023-08-13T19:04:25.288Z,1.6
2023-08-13T19:09:25.553Z,1.3
2023-08-13T19:15:18.521Z,0.7
2023-08-13T19:20:25.229Z,0.4
2023-08-13T19:25:25.966Z,0.4
2023-08-13T19:31:18.407Z,0
2023-08-13T19:36:18.424Z,0
2023-08-13T19:41:18.470Z,0.1
2023-08-13T19:46:25.525Z,0.1
2023-08-13T19:51:25.929Z,0
2023-08-13T19:57:18.508Z,0
2023-08-13T20:02:25.927Z,0
2023-08-13T20:08:18.409Z,0
2023-08-13T20:13:18.536Z,0
2023-08-13T20:18:25.269Z,0
2023-08-13T20:23:25.273Z,0
2023-08-13T20:28:25.382Z,0
2023-08-13T20:34:18.443Z,0
2023-08-13T20:39:25.565Z,0
2023-08-13T20:44:31.263Z,0
2023-08-13T20:50:18.572Z,0
2023-08-13T20:55:18.524Z,0
2023-08-13T21:00:26.107Z,0
2023-08-13T21:06:18.456Z,0
2023-08-13T21:11:26.085Z,0
2023-08-13T21:17:18.490Z,0
2023-08-13T21:22:25.358Z,0
2023-08-13T21:27:25.906Z,0
2023-08-13T21:32:26.226Z,0
2023-08-13T21:38:18.461Z,0
2023-08-13T21:43:18.472Z,0
2023-08-13T21:48:18.604Z,0
2023-08-13T21:53:25.575Z,0
2023-08-13T21:58:25.823Z,0
2023-08-13T22:03:26.071Z,0
2023-08-13T22:09:18.461Z,0
2023-08-13T22:14:25.311Z,0
2023-08-13T22:19:25.348Z,0
2023-08-13T22:35:18.554Z,0
2023-08-13T22:40:25.631Z,0
2023-08-13T22:46:18.591Z,0
2023-08-13T22:51:18.561Z,0
2023-08-13T22:56:25.426Z,0
2023-08-13T23:02:18.894Z,0
2023-08-13T23:07:25.904Z,0
2023-08-13T23:13:18.495Z,0
2023-08-13T23:18:18.644Z,0
2023-08-13T23:23:25.839Z,0
2023-08-13T23:29:18.517Z,0
2023-08-13T23:34:18.618Z,0
2023-08-13T23:39:18.561Z,0
2023-08-13T23:55:18.540Z,0
